sensor_id;sensor_type;location;lat;lon;timestamp;temperature;humidity
20829;DHT22;10575;50.124;8.582;2022-08-19T00:00:18;22.40;99.90
20829;DHT22;10575;50.124;8.582;2022-08-19T00:02:45;22.40;99.90
20829;DHT22;10575;50.124;8.582;2022-08-19T00:05:12;22.40;99.90
20829;DHT22;10575;50.124;8.582;2022-08-19T00:07:38;22.50;99.90
20829;DHT22;10575;50.124;8.582;2022-08-19T00:10:06;22.40;99.90
20829;DHT22;10575;50.124;8.582;2022-08-19T00:12:32;22.40;99.90
20829;DHT22;10575;50.124;8.582;2022-08-19T00:14:57;22.40;99.90
20829;DHT22;10575;50.124;8.582;2022-08-19T00:17:23;22.40;99.90
20829;DHT22;10575;50.124;8.582;2022-08-19T00:19:48;22.40;99.90
20829;DHT22;10575;50.124;8.582;2022-08-19T00:22:14;22.40;99.90
20829;DHT22;10575;50.124;8.582;2022-08-19T00:24:41;22.40;99.90
20829;DHT22;10575;50.124;8.582;2022-08-19T00:27:08;22.40;99.90
20829;DHT22;10575;50.124;8.582;2022-08-19T00:29:34;22.40;99.90
20829;DHT22;10575;50.124;8.582;2022-08-19T00:31:59;22.40;99.90
20829;DHT22;10575;50.124;8.582;2022-08-19T00:34:26;22.40;99.90
20829;DHT22;10575;50.124;8.582;2022-08-19T00:36:54;22.30;99.90
20829;DHT22;10575;50.124;8.582;2022-08-19T00:39:20;22.30;99.90
20829;DHT22;10575;50.124;8.582;2022-08-19T00:41:47;22.30;99.90
20829;DHT22;10575;50.124;8.582;2022-08-19T00:44:24;22.40;99.90
20829;DHT22;10575;50.124;8.582;2022-08-19T00:46:52;22.40;99.90
20829;DHT22;10575;50.124;8.582;2022-08-19T00:49:40;22.50;99.90
20829;DHT22;10575;50.124;8.582;2022-08-19T00:52:09;22.40;99.90
20829;DHT22;10575;50.124;8.582;2022-08-19T00:54:38;22.40;99.90
20829;DHT22;10575;50.124;8.582;2022-08-19T00:57:10;22.40;99.90
20829;DHT22;10575;50.124;8.582;2022-08-19T00:59:40;22.40;99.90
20829;DHT22;10575;50.124;8.582;2022-08-19T01:02:07;22.30;99.90
20829;DHT22;10575;50.124;8.582;2022-08-19T01:04:32;22.40;99.90
20829;DHT22;10575;50.124;8.582;2022-08-19T01:06:58;22.30;99.90
20829;DHT22;10575;50.124;8.582;2022-08-19T01:09:24;22.30;99.90
20829;DHT22;10575;50.124;8.582;2022-08-19T01:11:51;22.30;99.90
20829;DHT22;10575;50.124;8.582;2022-08-19T01:14:17;22.30;99.90
20829;DHT22;10575;50.124;8.582;2022-08-19T01:16:44;22.30;99.90
20829;DHT22;10575;50.124;8.582;2022-08-19T01:19:41;22.30;99.90
20829;DHT22;10575;50.124;8.582;2022-08-19T01:24:42;22.30;99.90
20829;DHT22;10575;50.124;8.582;2022-08-19T01:27:08;22.40;99.90
20829;DHT22;10575;50.124;8.582;2022-08-19T01:29:39;22.40;99.90
20829;DHT22;10575;50.124;8.582;2022-08-19T01:32:05;22.40;99.90
20829;DHT22;10575;50.124;8.582;2022-08-19T01:34:31;22.40;99.90
20829;DHT22;10575;50.124;8.582;2022-08-19T01:36:59;22.50;99.90
20829;DHT22;10575;50.124;8.582;2022-08-19T01:39:27;22.50;99.90
20829;DHT22;10575;50.124;8.582;2022-08-19T01:41:53;22.50;99.90
20829;DHT22;10575;50.124;8.582;2022-08-19T01:44:20;22.40;99.90
20829;DHT22;10575;50.124;8.582;2022-08-19T01:46:48;22.40;99.90
20829;DHT22;10575;50.124;8.582;2022-08-19T01:49:17;22.40;99.90
20829;DHT22;10575;50.124;8.582;2022-08-19T01:51:44;22.40;99.90
20829;DHT22;10575;50.124;8.582;2022-08-19T01:54:12;22.40;99.90
20829;DHT22;10575;50.124;8.582;2022-08-19T01:56:37;22.40;99.90
20829;DHT22;10575;50.124;8.582;2022-08-19T01:59:10;22.40;99.90
20829;DHT22;10575;50.124;8.582;2022-08-19T02:01:37;22.40;99.90
20829;DHT22;10575;50.124;8.582;2022-08-19T02:04:02;22.30;99.90
20829;DHT22;10575;50.124;8.582;2022-08-19T02:06:28;22.40;99.90
20829;DHT22;10575;50.124;8.582;2022-08-19T02:08:55;22.40;99.90
20829;DHT22;10575;50.124;8.582;2022-08-19T02:11:23;22.40;99.90
20829;DHT22;10575;50.124;8.582;2022-08-19T02:13:52;22.30;99.90
20829;DHT22;10575;50.124;8.582;2022-08-19T02:16:18;22.30;99.90
20829;DHT22;10575;50.124;8.582;2022-08-19T02:18:45;22.30;99.90
20829;DHT22;10575;50.124;8.582;2022-08-19T02:21:11;22.30;99.90
20829;DHT22;10575;50.124;8.582;2022-08-19T02:23:38;22.30;99.90
20829;DHT22;10575;50.124;8.582;2022-08-19T02:26:04;22.30;99.90
20829;DHT22;10575;50.124;8.582;2022-08-19T02:28:29;22.30;99.90
20829;DHT22;10575;50.124;8.582;2022-08-19T02:30:55;22.40;99.90
20829;DHT22;10575;50.124;8.582;2022-08-19T02:33:20;22.30;99.90
20829;DHT22;10575;50.124;8.582;2022-08-19T02:35:46;22.30;99.90
20829;DHT22;10575;50.124;8.582;2022-08-19T02:38:13;22.30;99.90
20829;DHT22;10575;50.124;8.582;2022-08-19T02:40:58;22.30;99.90
20829;DHT22;10575;50.124;8.582;2022-08-19T02:43:25;22.30;99.90
20829;DHT22;10575;50.124;8.582;2022-08-19T02:45:51;22.30;99.90
20829;DHT22;10575;50.124;8.582;2022-08-19T02:48:19;22.30;99.90
20829;DHT22;10575;50.124;8.582;2022-08-19T02:50:46;22.30;99.90
20829;DHT22;10575;50.124;8.582;2022-08-19T02:53:13;22.30;99.90
20829;DHT22;10575;50.124;8.582;2022-08-19T02:55:48;22.40;99.90
20829;DHT22;10575;50.124;8.582;2022-08-19T02:58:14;22.40;99.90
20829;DHT22;10575;50.124;8.582;2022-08-19T03:00:45;22.40;99.90
20829;DHT22;10575;50.124;8.582;2022-08-19T03:03:11;22.40;99.90
20829;DHT22;10575;50.124;8.582;2022-08-19T03:05:37;22.40;99.90
20829;DHT22;10575;50.124;8.582;2022-08-19T03:08:03;22.40;99.90
20829;DHT22;10575;50.124;8.582;2022-08-19T03:10:29;22.40;99.90
20829;DHT22;10575;50.124;8.582;2022-08-19T03:12:54;22.30;99.90
20829;DHT22;10575;50.124;8.582;2022-08-19T03:15:20;22.30;99.90
20829;DHT22;10575;50.124;8.582;2022-08-19T03:17:46;22.20;99.90
20829;DHT22;10575;50.124;8.582;2022-08-19T03:20:11;22.20;99.90
20829;DHT22;10575;50.124;8.582;2022-08-19T03:22:37;22.10;99.90
20829;DHT22;10575;50.124;8.582;2022-08-19T03:25:02;22.10;99.90
20829;DHT22;10575;50.124;8.582;2022-08-19T03:27:28;22.10;99.90
20829;DHT22;10575;50.124;8.582;2022-08-19T03:29:55;22.20;99.90
20829;DHT22;10575;50.124;8.582;2022-08-19T03:32:20;22.30;99.90
20829;DHT22;10575;50.124;8.582;2022-08-19T03:34:47;22.30;99.90
20829;DHT22;10575;50.124;8.582;2022-08-19T03:37:12;22.30;99.90
20829;DHT22;10575;50.124;8.582;2022-08-19T03:39:39;22.40;99.90
20829;DHT22;10575;50.124;8.582;2022-08-19T03:42:05;22.40;99.90
20829;DHT22;10575;50.124;8.582;2022-08-19T03:44:31;22.30;99.90
20829;DHT22;10575;50.124;8.582;2022-08-19T03:46:59;22.20;99.90
20829;DHT22;10575;50.124;8.582;2022-08-19T03:49:28;22.10;99.90
20829;DHT22;10575;50.124;8.582;2022-08-19T03:51:56;22.00;99.90
20829;DHT22;10575;50.124;8.582;2022-08-19T03:54:24;22.00;99.90
20829;DHT22;10575;50.124;8.582;2022-08-19T03:56:52;21.90;99.90
20829;DHT22;10575;50.124;8.582;2022-08-19T03:59:22;22.00;99.90
20829;DHT22;10575;50.124;8.582;2022-08-19T04:01:52;22.00;99.90
20829;DHT22;10575;50.124;8.582;2022-08-19T04:04:17;22.00;99.90
20829;DHT22;10575;50.124;8.582;2022-08-19T04:06:43;22.10;99.90
20829;DHT22;10575;50.124;8.582;2022-08-19T04:09:10;22.20;99.90
20829;DHT22;10575;50.124;8.582;2022-08-19T04:11:45;22.20;99.90
20829;DHT22;10575;50.124;8.582;2022-08-19T04:14:14;22.00;99.90
20829;DHT22;10575;50.124;8.582;2022-08-19T04:16:40;21.90;99.90
20829;DHT22;10575;50.124;8.582;2022-08-19T04:19:06;21.90;99.90
20829;DHT22;10575;50.124;8.582;2022-08-19T04:21:33;21.80;99.90
20829;DHT22;10575;50.124;8.582;2022-08-19T04:23:59;21.80;99.90
20829;DHT22;10575;50.124;8.582;2022-08-19T04:26:31;21.80;99.90
20829;DHT22;10575;50.124;8.582;2022-08-19T04:29:01;21.80;99.90
20829;DHT22;10575;50.124;8.582;2022-08-19T04:31:31;21.80;99.90
20829;DHT22;10575;50.124;8.582;2022-08-19T04:33:59;21.80;99.90
20829;DHT22;10575;50.124;8.582;2022-08-19T04:36:27;21.80;99.90
20829;DHT22;10575;50.124;8.582;2022-08-19T04:38:56;21.80;99.90
20829;DHT22;10575;50.124;8.582;2022-08-19T04:41:22;21.80;99.90
20829;DHT22;10575;50.124;8.582;2022-08-19T04:44:06;21.80;99.90
20829;DHT22;10575;50.124;8.582;2022-08-19T04:46:32;21.80;99.90
20829;DHT22;10575;50.124;8.582;2022-08-19T04:49:00;21.80;99.90
20829;DHT22;10575;50.124;8.582;2022-08-19T04:51:25;21.90;99.90
20829;DHT22;10575;50.124;8.582;2022-08-19T04:53:52;21.90;99.90
20829;DHT22;10575;50.124;8.582;2022-08-19T04:56:19;21.90;99.90
20829;DHT22;10575;50.124;8.582;2022-08-19T04:58:46;22.00;99.90
20829;DHT22;10575;50.124;8.582;2022-08-19T05:01:17;22.10;99.90
20829;DHT22;10575;50.124;8.582;2022-08-19T05:03:43;22.20;99.90
20829;DHT22;10575;50.124;8.582;2022-08-19T05:06:11;22.30;99.90
20829;DHT22;10575;50.124;8.582;2022-08-19T05:08:39;22.40;99.90
20829;DHT22;10575;50.124;8.582;2022-08-19T05:11:17;22.50;99.90
20829;DHT22;10575;50.124;8.582;2022-08-19T05:13:43;22.50;99.90
20829;DHT22;10575;50.124;8.582;2022-08-19T05:16:11;22.70;99.90
20829;DHT22;10575;50.124;8.582;2022-08-19T05:18:37;22.80;99.90
20829;DHT22;10575;50.124;8.582;2022-08-19T05:21:22;22.90;99.90
20829;DHT22;10575;50.124;8.582;2022-08-19T05:24:06;23.00;99.90
20829;DHT22;10575;50.124;8.582;2022-08-19T05:26:40;23.10;99.90
20829;DHT22;10575;50.124;8.582;2022-08-19T05:29:07;23.20;99.90
20829;DHT22;10575;50.124;8.582;2022-08-19T05:31:34;23.30;99.90
20829;DHT22;10575;50.124;8.582;2022-08-19T05:34:01;23.40;99.90
20829;DHT22;10575;50.124;8.582;2022-08-19T05:36:27;23.60;99.90
20829;DHT22;10575;50.124;8.582;2022-08-19T05:38:53;23.70;99.90
20829;DHT22;10575;50.124;8.582;2022-08-19T05:41:20;24.00;99.90
20829;DHT22;10575;50.124;8.582;2022-08-19T05:43:46;23.90;99.90
20829;DHT22;10575;50.124;8.582;2022-08-19T05:46:19;24.10;99.90
20829;DHT22;10575;50.124;8.582;2022-08-19T05:48:45;24.20;99.90
20829;DHT22;10575;50.124;8.582;2022-08-19T05:51:11;24.30;99.90
20829;DHT22;10575;50.124;8.582;2022-08-19T05:53:37;24.10;99.90
20829;DHT22;10575;50.124;8.582;2022-08-19T05:56:07;24.30;99.90
20829;DHT22;10575;50.124;8.582;2022-08-19T05:58:34;24.50;99.90
20829;DHT22;10575;50.124;8.582;2022-08-19T06:01:00;24.60;99.90
20829;DHT22;10575;50.124;8.582;2022-08-19T06:03:32;24.90;99.90
20829;DHT22;10575;50.124;8.582;2022-08-19T06:05:59;25.10;99.90
20829;DHT22;10575;50.124;8.582;2022-08-19T06:08:26;25.20;99.90
20829;DHT22;10575;50.124;8.582;2022-08-19T06:10:52;25.80;99.90
20829;DHT22;10575;50.124;8.582;2022-08-19T06:13:18;26.00;99.90
20829;DHT22;10575;50.124;8.582;2022-08-19T06:15:45;26.20;99.90
20829;DHT22;10575;50.124;8.582;2022-08-19T06:18:12;26.40;99.90
20829;DHT22;10575;50.124;8.582;2022-08-19T06:20:39;26.80;99.90
20829;DHT22;10575;50.124;8.582;2022-08-19T06:23:05;27.40;99.90
20829;DHT22;10575;50.124;8.582;2022-08-19T06:25:30;27.60;99.90
20829;DHT22;10575;50.124;8.582;2022-08-19T06:27:56;27.70;99.90
20829;DHT22;10575;50.124;8.582;2022-08-19T06:30:21;27.70;99.90
20829;DHT22;10575;50.124;8.582;2022-08-19T06:32:47;27.50;99.90
20829;DHT22;10575;50.124;8.582;2022-08-19T06:35:12;27.10;99.90
20829;DHT22;10575;50.124;8.582;2022-08-19T06:37:40;26.90;99.90
20829;DHT22;10575;50.124;8.582;2022-08-19T06:40:06;26.90;99.90
20829;DHT22;10575;50.124;8.582;2022-08-19T06:42:34;27.20;99.90
20829;DHT22;10575;50.124;8.582;2022-08-19T06:45:00;27.50;99.50
20829;DHT22;10575;50.124;8.582;2022-08-19T06:47:28;28.10;99.60
20829;DHT22;10575;50.124;8.582;2022-08-19T06:49:57;28.70;98.20
20829;DHT22;10575;50.124;8.582;2022-08-19T06:52:34;29.00;96.60
20829;DHT22;10575;50.124;8.582;2022-08-19T06:55:00;29.50;95.20
20829;DHT22;10575;50.124;8.582;2022-08-19T06:57:27;29.50;93.90
20829;DHT22;10575;50.124;8.582;2022-08-19T06:59:53;29.70;93.00
20829;DHT22;10575;50.124;8.582;2022-08-19T07:02:21;30.60;91.70
20829;DHT22;10575;50.124;8.582;2022-08-19T07:04:52;31.40;90.00
20829;DHT22;10575;50.124;8.582;2022-08-19T07:07:19;31.40;84.60
20829;DHT22;10575;50.124;8.582;2022-08-19T07:09:45;30.80;86.70
20829;DHT22;10575;50.124;8.582;2022-08-19T07:12:13;30.70;85.90
20829;DHT22;10575;50.124;8.582;2022-08-19T07:14:40;30.30;88.00
20829;DHT22;10575;50.124;8.582;2022-08-19T07:17:08;30.70;86.40
20829;DHT22;10575;50.124;8.582;2022-08-19T07:19:35;31.10;84.00
20829;DHT22;10575;50.124;8.582;2022-08-19T07:22:03;31.40;81.40
20829;DHT22;10575;50.124;8.582;2022-08-19T07:24:30;31.70;79.10
20829;DHT22;10575;50.124;8.582;2022-08-19T07:26:58;31.70;79.00
20829;DHT22;10575;50.124;8.582;2022-08-19T07:29:27;31.90;77.60
20829;DHT22;10575;50.124;8.582;2022-08-19T07:31:54;31.90;76.10
20829;DHT22;10575;50.124;8.582;2022-08-19T07:34:25;32.00;76.70
20829;DHT22;10575;50.124;8.582;2022-08-19T07:36:51;32.50;73.20
20829;DHT22;10575;50.124;8.582;2022-08-19T07:39:21;33.00;72.30
20829;DHT22;10575;50.124;8.582;2022-08-19T07:41:47;34.50;67.80
20829;DHT22;10575;50.124;8.582;2022-08-19T07:44:14;35.50;63.50
20829;DHT22;10575;50.124;8.582;2022-08-19T07:46:43;35.80;59.10
20829;DHT22;10575;50.124;8.582;2022-08-19T07:49:10;35.70;59.20
20829;DHT22;10575;50.124;8.582;2022-08-19T07:51:43;36.40;57.50
20829;DHT22;10575;50.124;8.582;2022-08-19T07:54:09;36.50;54.90
20829;DHT22;10575;50.124;8.582;2022-08-19T07:56:37;37.50;53.80
20829;DHT22;10575;50.124;8.582;2022-08-19T07:59:03;37.90;51.70
20829;DHT22;10575;50.124;8.582;2022-08-19T08:01:29;37.40;51.90
20829;DHT22;10575;50.124;8.582;2022-08-19T08:03:57;37.10;52.20
20829;DHT22;10575;50.124;8.582;2022-08-19T08:06:42;37.10;51.50
20829;DHT22;10575;50.124;8.582;2022-08-19T08:09:31;37.00;51.90
20829;DHT22;10575;50.124;8.582;2022-08-19T08:12:00;37.30;51.20
20829;DHT22;10575;50.124;8.582;2022-08-19T08:14:30;37.30;50.60
20829;DHT22;10575;50.124;8.582;2022-08-19T08:16:56;37.50;50.20
20829;DHT22;10575;50.124;8.582;2022-08-19T08:19:23;37.90;48.80
20829;DHT22;10575;50.124;8.582;2022-08-19T08:21:50;39.20;47.70
20829;DHT22;10575;50.124;8.582;2022-08-19T08:24:17;40.10;45.60
20829;DHT22;10575;50.124;8.582;2022-08-19T08:26:43;40.40;45.10
20829;DHT22;10575;50.124;8.582;2022-08-19T08:29:13;40.90;44.00
20829;DHT22;10575;50.124;8.582;2022-08-19T08:31:42;40.90;43.30
20829;DHT22;10575;50.124;8.582;2022-08-19T08:34:09;41.60;41.60
20829;DHT22;10575;50.124;8.582;2022-08-19T08:36:39;41.30;41.60
20829;DHT22;10575;50.124;8.582;2022-08-19T08:39:10;42.30;40.00
20829;DHT22;10575;50.124;8.582;2022-08-19T08:44:26;42.70;39.20
20829;DHT22;10575;50.124;8.582;2022-08-19T08:47:01;42.80;38.60
20829;DHT22;10575;50.124;8.582;2022-08-19T08:49:47;42.60;38.00
20829;DHT22;10575;50.124;8.582;2022-08-19T08:52:33;43.90;37.00
20829;DHT22;10575;50.124;8.582;2022-08-19T08:55:05;44.00;37.20
20829;DHT22;10575;50.124;8.582;2022-08-19T08:58:03;44.50;34.70
20829;DHT22;10575;50.124;8.582;2022-08-19T09:00:33;45.10;33.80
20829;DHT22;10575;50.124;8.582;2022-08-19T09:03:00;44.10;33.90
20829;DHT22;10575;50.124;8.582;2022-08-19T09:08:31;43.10;36.30
20829;DHT22;10575;50.124;8.582;2022-08-19T09:10:58;42.20;37.10
20829;DHT22;10575;50.124;8.582;2022-08-19T09:16:05;40.30;39.80
20829;DHT22;10575;50.124;8.582;2022-08-19T09:18:47;38.90;41.10
20829;DHT22;10575;50.124;8.582;2022-08-19T09:21:15;37.60;43.00
20829;DHT22;10575;50.124;8.582;2022-08-19T09:23:41;35.60;46.50
20829;DHT22;10575;50.124;8.582;2022-08-19T09:26:11;33.70;49.80
20829;DHT22;10575;50.124;8.582;2022-08-19T09:28:42;32.90;51.90
20829;DHT22;10575;50.124;8.582;2022-08-19T09:31:12;34.70;50.40
20829;DHT22;10575;50.124;8.582;2022-08-19T09:33:38;36.70;46.50
20829;DHT22;10575;50.124;8.582;2022-08-19T09:36:07;36.60;46.00
20829;DHT22;10575;50.124;8.582;2022-08-19T09:38:35;35.70;47.70
20829;DHT22;10575;50.124;8.582;2022-08-19T09:41:05;34.90;49.40
20829;DHT22;10575;50.124;8.582;2022-08-19T09:43:32;33.70;50.40
20829;DHT22;10575;50.124;8.582;2022-08-19T09:45:59;32.90;52.50
20829;DHT22;10575;50.124;8.582;2022-08-19T09:48:25;32.70;53.40
20829;DHT22;10575;50.124;8.582;2022-08-19T09:50:51;33.20;52.10
20829;DHT22;10575;50.124;8.582;2022-08-19T09:53:17;33.70;52.50
20829;DHT22;10575;50.124;8.582;2022-08-19T09:55:43;33.90;51.60
20829;DHT22;10575;50.124;8.582;2022-08-19T09:58:09;34.00;51.70
20829;DHT22;10575;50.124;8.582;2022-08-19T10:00:37;34.20;50.20
20829;DHT22;10575;50.124;8.582;2022-08-19T10:03:03;33.40;51.80
20829;DHT22;10575;50.124;8.582;2022-08-19T10:05:29;32.80;52.70
20829;DHT22;10575;50.124;8.582;2022-08-19T10:08:15;32.30;53.60
20829;DHT22;10575;50.124;8.582;2022-08-19T10:10:41;31.70;54.30
20829;DHT22;10575;50.124;8.582;2022-08-19T10:13:10;31.40;56.20
20829;DHT22;10575;50.124;8.582;2022-08-19T10:15:36;31.20;56.20
20829;DHT22;10575;50.124;8.582;2022-08-19T10:18:05;31.40;55.80
20829;DHT22;10575;50.124;8.582;2022-08-19T10:20:32;31.20;56.90
20829;DHT22;10575;50.124;8.582;2022-08-19T10:22:57;31.00;57.20
20829;DHT22;10575;50.124;8.582;2022-08-19T10:25:24;31.10;55.50
20829;DHT22;10575;50.124;8.582;2022-08-19T10:27:52;31.00;57.10
20829;DHT22;10575;50.124;8.582;2022-08-19T10:30:17;31.10;57.20
20829;DHT22;10575;50.124;8.582;2022-08-19T10:32:44;31.20;57.60
20829;DHT22;10575;50.124;8.582;2022-08-19T10:35:11;31.40;57.60
20829;DHT22;10575;50.124;8.582;2022-08-19T10:37:38;31.90;55.80
20829;DHT22;10575;50.124;8.582;2022-08-19T10:40:05;31.90;55.00
20829;DHT22;10575;50.124;8.582;2022-08-19T10:42:36;32.00;55.90
20829;DHT22;10575;50.124;8.582;2022-08-19T10:45:02;31.60;56.50
20829;DHT22;10575;50.124;8.582;2022-08-19T10:47:28;31.40;57.00
20829;DHT22;10575;50.124;8.582;2022-08-19T10:49:54;30.90;57.40
20829;DHT22;10575;50.124;8.582;2022-08-19T10:52:41;30.80;58.00
20829;DHT22;10575;50.124;8.582;2022-08-19T10:55:08;31.00;58.20
20829;DHT22;10575;50.124;8.582;2022-08-19T10:57:52;31.30;56.70
20829;DHT22;10575;50.124;8.582;2022-08-19T11:00:19;31.30;56.10
20829;DHT22;10575;50.124;8.582;2022-08-19T11:02:45;31.30;56.30
20829;DHT22;10575;50.124;8.582;2022-08-19T11:05:11;31.20;55.60
20829;DHT22;10575;50.124;8.582;2022-08-19T11:07:40;31.20;56.80
20829;DHT22;10575;50.124;8.582;2022-08-19T11:10:09;31.30;57.80
20829;DHT22;10575;50.124;8.582;2022-08-19T11:12:38;31.60;57.10
20829;DHT22;10575;50.124;8.582;2022-08-19T11:15:07;31.70;56.60
20829;DHT22;10575;50.124;8.582;2022-08-19T11:17:34;32.00;56.30
20829;DHT22;10575;50.124;8.582;2022-08-19T11:19:59;32.10;55.30
20829;DHT22;10575;50.124;8.582;2022-08-19T11:22:28;31.80;54.90
20829;DHT22;10575;50.124;8.582;2022-08-19T11:24:53;31.80;55.40
20829;DHT22;10575;50.124;8.582;2022-08-19T11:27:20;31.60;55.50
20829;DHT22;10575;50.124;8.582;2022-08-19T11:29:46;31.50;55.40
20829;DHT22;10575;50.124;8.582;2022-08-19T11:32:11;31.50;55.40
20829;DHT22;10575;50.124;8.582;2022-08-19T11:34:38;31.50;56.00
20829;DHT22;10575;50.124;8.582;2022-08-19T11:37:04;31.40;55.20
20829;DHT22;10575;50.124;8.582;2022-08-19T11:39:31;31.20;55.70
20829;DHT22;10575;50.124;8.582;2022-08-19T11:42:01;31.00;56.90
20829;DHT22;10575;50.124;8.582;2022-08-19T11:44:50;30.90;57.50
20829;DHT22;10575;50.124;8.582;2022-08-19T11:47:16;30.70;57.00
20829;DHT22;10575;50.124;8.582;2022-08-19T11:49:42;30.20;58.00
20829;DHT22;10575;50.124;8.582;2022-08-19T11:52:08;30.10;58.80
20829;DHT22;10575;50.124;8.582;2022-08-19T11:54:34;30.00;60.00
20829;DHT22;10575;50.124;8.582;2022-08-19T11:56:59;29.90;59.80
20829;DHT22;10575;50.124;8.582;2022-08-19T11:59:26;29.70;58.70
20829;DHT22;10575;50.124;8.582;2022-08-19T12:01:52;29.80;58.70
20829;DHT22;10575;50.124;8.582;2022-08-19T12:04:17;29.90;57.80
20829;DHT22;10575;50.124;8.582;2022-08-19T12:06:43;30.10;57.80
20829;DHT22;10575;50.124;8.582;2022-08-19T12:09:10;29.90;57.50
20829;DHT22;10575;50.124;8.582;2022-08-19T12:11:37;29.90;58.10
20829;DHT22;10575;50.124;8.582;2022-08-19T12:14:03;30.10;58.40
20829;DHT22;10575;50.124;8.582;2022-08-19T12:16:30;30.30;56.30
20829;DHT22;10575;50.124;8.582;2022-08-19T12:18:57;30.40;54.80
20829;DHT22;10575;50.124;8.582;2022-08-19T12:21:27;30.40;54.60
20829;DHT22;10575;50.124;8.582;2022-08-19T12:23:57;30.50;55.70
20829;DHT22;10575;50.124;8.582;2022-08-19T12:26:24;30.40;56.00
20829;DHT22;10575;50.124;8.582;2022-08-19T12:28:49;30.10;55.00
20829;DHT22;10575;50.124;8.582;2022-08-19T12:31:16;29.90;54.80
20829;DHT22;10575;50.124;8.582;2022-08-19T12:33:42;29.80;55.60
20829;DHT22;10575;50.124;8.582;2022-08-19T12:36:11;29.80;56.20
20829;DHT22;10575;50.124;8.582;2022-08-19T12:38:37;29.90;56.30
20829;DHT22;10575;50.124;8.582;2022-08-19T12:41:04;29.70;55.80
20829;DHT22;10575;50.124;8.582;2022-08-19T12:43:36;30.00;55.40
20829;DHT22;10575;50.124;8.582;2022-08-19T12:46:04;30.30;55.30
20829;DHT22;10575;50.124;8.582;2022-08-19T12:48:30;30.20;52.60
20829;DHT22;10575;50.124;8.582;2022-08-19T12:51:13;30.30;54.50
20829;DHT22;10575;50.124;8.582;2022-08-19T12:53:40;30.30;54.90
20829;DHT22;10575;50.124;8.582;2022-08-19T12:56:07;30.30;55.00
20829;DHT22;10575;50.124;8.582;2022-08-19T12:58:33;30.10;55.20
20829;DHT22;10575;50.124;8.582;2022-08-19T13:01:05;29.80;54.70
20829;DHT22;10575;50.124;8.582;2022-08-19T13:03:31;29.70;56.00
20829;DHT22;10575;50.124;8.582;2022-08-19T13:05:56;29.90;55.80
20829;DHT22;10575;50.124;8.582;2022-08-19T13:08:22;30.00;55.90
20829;DHT22;10575;50.124;8.582;2022-08-19T13:10:47;30.10;55.20
20829;DHT22;10575;50.124;8.582;2022-08-19T13:13:13;30.20;55.50
20829;DHT22;10575;50.124;8.582;2022-08-19T13:15:40;30.30;55.00
20829;DHT22;10575;50.124;8.582;2022-08-19T13:18:08;30.00;54.70
20829;DHT22;10575;50.124;8.582;2022-08-19T13:20:36;29.90;55.30
20829;DHT22;10575;50.124;8.582;2022-08-19T13:23:03;29.90;55.60
20829;DHT22;10575;50.124;8.582;2022-08-19T13:25:29;30.00;55.10
20829;DHT22;10575;50.124;8.582;2022-08-19T13:27:54;30.10;55.00
20829;DHT22;10575;50.124;8.582;2022-08-19T13:30:20;30.20;54.80
20829;DHT22;10575;50.124;8.582;2022-08-19T13:33:05;30.20;54.40
20829;DHT22;10575;50.124;8.582;2022-08-19T13:35:45;30.20;54.60
20829;DHT22;10575;50.124;8.582;2022-08-19T13:38:12;30.30;53.70
20829;DHT22;10575;50.124;8.582;2022-08-19T13:40:39;30.30;53.80
20829;DHT22;10575;50.124;8.582;2022-08-19T13:43:06;30.20;54.90
20829;DHT22;10575;50.124;8.582;2022-08-19T13:45:33;30.20;54.20
20829;DHT22;10575;50.124;8.582;2022-08-19T13:48:00;30.30;53.60
20829;DHT22;10575;50.124;8.582;2022-08-19T13:50:28;30.50;53.10
20829;DHT22;10575;50.124;8.582;2022-08-19T13:52:55;30.50;53.30
20829;DHT22;10575;50.124;8.582;2022-08-19T13:55:22;30.60;52.50
20829;DHT22;10575;50.124;8.582;2022-08-19T13:57:52;30.60;52.40
20829;DHT22;10575;50.124;8.582;2022-08-19T14:00:18;30.50;53.40
20829;DHT22;10575;50.124;8.582;2022-08-19T14:02:45;30.60;53.60
20829;DHT22;10575;50.124;8.582;2022-08-19T14:05:15;30.60;53.00
20829;DHT22;10575;50.124;8.582;2022-08-19T14:07:41;30.50;53.30
20829;DHT22;10575;50.124;8.582;2022-08-19T14:10:09;30.50;52.90
20829;DHT22;10575;50.124;8.582;2022-08-19T14:12:35;30.50;52.10
20829;DHT22;10575;50.124;8.582;2022-08-19T14:15:02;30.70;51.50
20829;DHT22;10575;50.124;8.582;2022-08-19T14:17:28;30.70;51.30
20829;DHT22;10575;50.124;8.582;2022-08-19T14:20:03;30.50;51.40
20829;DHT22;10575;50.124;8.582;2022-08-19T14:22:33;30.70;52.10
20829;DHT22;10575;50.124;8.582;2022-08-19T14:24:58;30.80;51.40
20829;DHT22;10575;50.124;8.582;2022-08-19T14:27:24;31.00;51.10
20829;DHT22;10575;50.124;8.582;2022-08-19T14:29:51;31.20;51.00
20829;DHT22;10575;50.124;8.582;2022-08-19T14:32:16;31.40;50.10
20829;DHT22;10575;50.124;8.582;2022-08-19T14:34:42;31.50;49.50
20829;DHT22;10575;50.124;8.582;2022-08-19T14:37:12;31.50;49.70
20829;DHT22;10575;50.124;8.582;2022-08-19T14:39:40;31.50;50.00
20829;DHT22;10575;50.124;8.582;2022-08-19T14:42:09;31.50;50.40
20829;DHT22;10575;50.124;8.582;2022-08-19T14:44:35;31.50;49.80
20829;DHT22;10575;50.124;8.582;2022-08-19T14:47:01;31.50;49.10
20829;DHT22;10575;50.124;8.582;2022-08-19T14:49:27;31.40;49.70
20829;DHT22;10575;50.124;8.582;2022-08-19T14:51:52;31.40;49.20
20829;DHT22;10575;50.124;8.582;2022-08-19T14:54:18;31.40;49.50
20829;DHT22;10575;50.124;8.582;2022-08-19T14:56:43;31.40;49.40
20829;DHT22;10575;50.124;8.582;2022-08-19T14:59:09;31.20;49.00
20829;DHT22;10575;50.124;8.582;2022-08-19T15:01:35;31.10;48.40
20829;DHT22;10575;50.124;8.582;2022-08-19T15:04:00;30.70;48.70
20829;DHT22;10575;50.124;8.582;2022-08-19T15:06:26;30.60;48.90
20829;DHT22;10575;50.124;8.582;2022-08-19T15:08:52;30.40;49.50
20829;DHT22;10575;50.124;8.582;2022-08-19T15:11:21;30.10;49.60
20829;DHT22;10575;50.124;8.582;2022-08-19T15:13:48;29.90;50.10
20829;DHT22;10575;50.124;8.582;2022-08-19T15:16:14;29.60;50.90
20829;DHT22;10575;50.124;8.582;2022-08-19T15:18:41;29.50;51.00
20829;DHT22;10575;50.124;8.582;2022-08-19T15:21:11;29.40;51.50
20829;DHT22;10575;50.124;8.582;2022-08-19T15:23:44;29.30;52.20
20829;DHT22;10575;50.124;8.582;2022-08-19T15:26:10;29.40;52.70
20829;DHT22;10575;50.124;8.582;2022-08-19T15:28:36;29.50;52.60
20829;DHT22;10575;50.124;8.582;2022-08-19T15:31:03;29.60;52.10
20829;DHT22;10575;50.124;8.582;2022-08-19T15:33:31;29.70;50.90
20829;DHT22;10575;50.124;8.582;2022-08-19T15:35:57;29.60;49.90
20829;DHT22;10575;50.124;8.582;2022-08-19T15:38:23;29.60;50.10
20829;DHT22;10575;50.124;8.582;2022-08-19T15:40:51;29.60;50.00
20829;DHT22;10575;50.124;8.582;2022-08-19T15:43:18;29.60;50.60
20829;DHT22;10575;50.124;8.582;2022-08-19T15:45:47;29.60;51.40